createdAt,value
2019-02-26T00:01:18.531Z,1.80
2019-02-26T00:03:47.585Z,1.53
2019-02-26T00:06:18.550Z,1.83
2019-02-26T00:08:51.278Z,2.10
2019-02-26T00:11:24.380Z,1.70
2019-02-26T00:13:52.821Z,1.80
2019-02-26T00:16:23.918Z,1.40
2019-02-26T00:18:56.279Z,1.53
2019-02-26T00:21:26.440Z,1.23
2019-02-26T00:23:57.120Z,1.50
2019-02-26T00:26:27.003Z,1.90
2019-02-26T00:28:58.029Z,1.57
2019-02-26T00:31:30.408Z,1.70
2019-02-26T00:34:00.038Z,2.03
2019-02-26T00:36:31.513Z,1.57
2019-02-26T00:39:03.462Z,1.47
2019-02-26T00:41:35.814Z,1.10
2019-02-26T00:44:06.530Z,1.60
2019-02-26T00:46:39.027Z,1.40
2019-02-26T00:49:09.573Z,1.37
2019-02-26T00:51:41.735Z,1.10
2019-02-26T00:54:11.074Z,1.00
2019-02-26T00:56:41.155Z,1.10
2019-02-26T00:59:11.280Z,1.07
2019-02-26T01:01:44.119Z,1.00
2019-02-26T01:04:12.822Z,0.80
2019-02-26T01:06:42.826Z,0.80
2019-02-26T01:09:14.116Z,1.13
2019-02-26T01:11:45.267Z,1.00
2019-02-26T01:14:18.041Z,0.87
2019-02-26T01:16:48.285Z,0.80
2019-02-26T01:19:19.871Z,1.07
2019-02-26T01:21:50.056Z,0.97
2019-02-26T01:24:21.413Z,0.67
2019-02-26T01:26:51.652Z,0.57
2019-02-26T01:29:23.041Z,0.60
2019-02-26T01:31:53.391Z,0.87
2019-02-26T01:34:23.390Z,1.13
2019-02-26T01:36:54.430Z,0.77
2019-02-26T01:39:24.335Z,0.77
2019-02-26T01:41:56.208Z,0.73
2019-02-26T01:44:28.102Z,0.70
2019-02-26T01:46:58.311Z,0.70
2019-02-26T01:49:29.103Z,0.60
2019-02-26T01:51:59.152Z,0.93
2019-02-26T01:54:30.493Z,0.60
2019-02-26T01:57:00.916Z,0.63
2019-02-26T01:59:31.741Z,0.60
2019-02-26T02:02:02.530Z,0.50
2019-02-26T02:04:34.115Z,0.70
2019-02-26T02:07:05.926Z,0.40
2019-02-26T02:09:35.781Z,0.77
2019-02-26T02:12:07.136Z,0.30
2019-02-26T02:14:37.518Z,0.67
2019-02-26T02:17:08.498Z,0.40
2019-02-26T02:19:39.030Z,0.30
2019-02-26T02:22:09.977Z,0.40
2019-02-26T02:24:43.619Z,0.40
2019-02-26T02:27:17.453Z,0.30
2019-02-26T02:29:46.107Z,0.40
2019-02-26T02:32:16.627Z,0.40
2019-02-26T02:34:46.560Z,0.20
2019-02-26T02:37:18.566Z,0.17
2019-02-26T02:39:48.306Z,0.10
2019-02-26T02:42:19.107Z,0.30
2019-02-26T02:44:52.577Z,0.13
2019-02-26T02:47:21.498Z,0.20
2019-02-26T02:49:51.378Z,0.10
2019-02-26T02:52:21.286Z,0.10
2019-02-26T02:54:51.874Z,0.10
2019-02-26T02:57:24.180Z,0.10
2019-02-26T02:59:56.494Z,0.20
2019-02-26T03:02:25.046Z,0.00
2019-02-26T03:04:55.149Z,0.10
2019-02-26T03:07:27.382Z,0.20
2019-02-26T03:09:58.013Z,0.20
2019-02-26T03:12:28.537Z,0.20
2019-02-26T03:15:00.021Z,0.30
2019-02-26T03:17:31.543Z,0.10
2019-02-26T03:20:04.717Z,0.23
2019-02-26T03:22:34.158Z,0.20
2019-02-26T03:25:06.462Z,0.20
2019-02-26T03:27:37.434Z,0.20
2019-02-26T03:30:20.491Z,0.50
2019-02-26T03:32:45.977Z,0.27
2019-02-26T03:35:16.683Z,0.30
2019-02-26T03:37:48.643Z,0.30
2019-02-26T03:40:18.047Z,0.40
2019-02-26T03:42:49.311Z,0.33
2019-02-26T03:45:23.748Z,0.40
2019-02-26T03:47:50.794Z,0.30
2019-02-26T03:50:20.700Z,0.30
2019-02-26T03:52:50.622Z,0.30
2019-02-26T03:55:20.639Z,0.40
2019-02-26T03:57:53.570Z,0.23
2019-02-26T04:00:22.254Z,0.40
2019-02-26T04:02:52.263Z,0.20
2019-02-26T04:05:22.182Z,0.40
2019-02-26T04:07:55.069Z,0.23
2019-02-26T04:10:23.982Z,0.17
2019-02-26T04:12:55.325Z,0.30
2019-02-26T04:15:27.867Z,0.47
2019-02-26T04:17:57.164Z,0.50
2019-02-26T04:20:27.952Z,0.40
2019-02-26T04:22:58.073Z,0.47
2019-02-26T04:25:36.329Z,0.50
2019-02-26T04:28:10.802Z,0.50
2019-02-26T04:30:44.503Z,0.67
2019-02-26T04:33:49.285Z,0.50
2019-02-26T04:36:27.920Z,0.60
2019-02-26T04:39:21.822Z,0.50
2019-02-26T04:42:14.110Z,0.50
2019-02-26T04:44:52.369Z,0.50
2019-02-26T04:47:24.066Z,0.67
2019-02-26T04:49:54.400Z,0.70
2019-02-26T04:52:25.315Z,0.60
2019-02-26T04:54:55.220Z,0.57
2019-02-26T04:57:25.239Z,0.60
2019-02-26T04:59:57.842Z,0.63
2019-02-26T05:02:27.079Z,0.60
2019-02-26T05:04:57.011Z,0.73
2019-02-26T05:07:26.989Z,0.77
2019-02-26T05:09:58.809Z,0.80
2019-02-26T05:12:30.975Z,1.00
2019-02-26T05:15:00.038Z,0.73
2019-02-26T05:17:32.971Z,0.97
2019-02-26T05:20:03.551Z,0.70
2019-02-26T05:22:33.400Z,0.67
2019-02-26T05:25:04.804Z,1.17
2019-02-26T05:27:36.391Z,1.10
2019-02-26T05:30:09.857Z,1.00
2019-02-26T05:32:41.035Z,0.80
2019-02-26T05:35:11.586Z,1.20
2019-02-26T05:37:42.645Z,1.30
2019-02-26T05:40:15.013Z,0.87
2019-02-26T05:42:44.178Z,1.07
2019-02-26T05:45:15.071Z,1.00
2019-02-26T05:47:46.041Z,1.17
2019-02-26T05:50:16.778Z,1.57
2019-02-26T05:52:49.760Z,0.97
2019-02-26T05:55:20.703Z,1.03
2019-02-26T05:57:50.142Z,1.33
2019-02-26T06:00:22.673Z,1.10
2019-02-26T06:02:51.649Z,1.10
2019-02-26T06:05:23.386Z,1.27
2019-02-26T06:07:53.309Z,1.07
2019-02-26T06:10:25.148Z,1.70
2019-02-26T06:12:55.872Z,1.60
2019-02-26T06:15:28.248Z,1.60
2019-02-26T06:17:57.298Z,1.13
2019-02-26T06:20:29.238Z,1.30
2019-02-26T06:22:59.825Z,1.37
2019-02-26T06:25:29.890Z,1.20
2019-02-26T06:28:02.250Z,1.40
2019-02-26T06:30:31.390Z,1.50
2019-02-26T06:33:04.123Z,0.93
2019-02-26T06:35:33.671Z,1.40
2019-02-26T06:38:06.418Z,1.13
2019-02-26T06:40:36.967Z,1.00
2019-02-26T06:43:07.594Z,1.03
2019-02-26T06:45:40.301Z,1.40
2019-02-26T06:48:14.686Z,1.20
2019-02-26T06:50:43.499Z,1.13
2019-02-26T06:53:14.357Z,1.17
2019-02-26T06:55:45.104Z,1.40
2019-02-26T06:58:23.291Z,1.07
2019-02-26T07:00:55.366Z,0.80
2019-02-26T07:03:25.002Z,1.03
2019-02-26T07:05:55.072Z,1.27
2019-02-26T07:08:26.753Z,0.93
2019-02-26T07:10:56.475Z,1.07
2019-02-26T07:13:28.386Z,0.97
2019-02-26T07:15:58.372Z,0.97
2019-02-26T07:18:28.253Z,0.90
2019-02-26T07:21:00.097Z,1.00
2019-02-26T07:23:32.548Z,0.67
2019-02-26T07:26:01.374Z,1.20
2019-02-26T07:28:31.275Z,0.80
2019-02-26T07:31:02.739Z,1.00
2019-02-26T07:33:35.134Z,0.90
2019-02-26T07:36:04.511Z,1.10
2019-02-26T07:38:40.866Z,0.77
2019-02-26T07:41:06.226Z,0.80
2019-02-26T07:43:38.791Z,1.03
2019-02-26T07:46:10.403Z,0.77
2019-02-26T07:48:39.619Z,0.90
2019-02-26T07:51:09.597Z,0.87
2019-02-26T07:53:41.996Z,0.90
2019-02-26T07:56:10.940Z,0.80
2019-02-26T07:58:42.918Z,0.90
2019-02-26T08:01:12.341Z,0.80
2019-02-26T08:03:43.904Z,0.70
2019-02-26T08:06:14.086Z,0.50
2019-02-26T08:08:44.929Z,0.60
2019-02-26T08:11:15.717Z,0.50
2019-02-26T08:13:45.689Z,0.60
2019-02-26T08:16:15.586Z,0.53
2019-02-26T08:18:47.389Z,0.70
2019-02-26T08:21:17.665Z,0.53
2019-02-26T08:23:50.548Z,0.40
2019-02-26T08:26:22.016Z,0.57
2019-02-26T08:28:51.618Z,0.50
2019-02-26T08:31:23.322Z,0.40
2019-02-26T08:33:53.063Z,0.50
2019-02-26T08:36:22.921Z,0.40
2019-02-26T08:38:56.464Z,0.50
2019-02-26T08:41:24.410Z,0.60
2019-02-26T08:43:56.297Z,0.50
2019-02-26T08:46:26.038Z,0.77
2019-02-26T08:48:56.026Z,0.57
2019-02-26T08:51:25.931Z,0.70
2019-02-26T08:53:57.240Z,0.50
2019-02-26T08:56:28.354Z,0.60
2019-02-26T08:59:00.839Z,0.60
2019-02-26T09:01:30.481Z,0.67
2019-02-26T09:04:00.820Z,0.60
2019-02-26T09:06:30.944Z,0.60
2019-02-26T09:09:02.693Z,0.50
2019-02-26T09:11:36.372Z,0.57
2019-02-26T09:14:07.122Z,0.60
2019-02-26T09:16:37.201Z,0.67
2019-02-26T09:19:07.219Z,0.70
2019-02-26T09:21:39.520Z,0.50
2019-02-26T09:24:08.829Z,0.60
2019-02-26T09:26:38.681Z,0.70
2019-02-26T09:29:10.312Z,1.07
2019-02-26T09:31:40.369Z,1.10
2019-02-26T09:34:10.265Z,1.40
2019-02-26T09:36:40.236Z,1.60
2019-02-26T09:39:10.704Z,1.10
2019-02-26T09:41:43.336Z,0.90
2019-02-26T09:44:13.266Z,1.00
2019-02-26T09:46:44.126Z,0.70
2019-02-26T09:49:14.105Z,1.03
2019-02-26T09:51:44.158Z,1.07
2019-02-26T09:54:15.273Z,1.50
2019-02-26T09:56:45.727Z,1.10
2019-02-26T09:59:15.606Z,0.90
2019-02-26T10:01:45.522Z,1.50
2019-02-26T10:04:17.218Z,5.93
2019-02-26T10:06:47.540Z,7.17
2019-02-26T10:09:20.622Z,6.83
2019-02-26T10:11:51.591Z,3.23
2019-02-26T10:14:21.837Z,4.47
2019-02-26T10:16:55.179Z,1.77
2019-02-26T10:19:24.442Z,1.30
2019-02-26T10:21:54.498Z,1.40
2019-02-26T10:24:27.177Z,1.20
2019-02-26T10:26:58.707Z,1.27
2019-02-26T10:29:27.553Z,1.10
2019-02-26T10:31:57.527Z,1.17
2019-02-26T10:34:30.258Z,1.10
2019-02-26T10:36:59.075Z,1.13
2019-02-26T10:39:28.958Z,1.03
2019-02-26T10:42:01.927Z,1.10
2019-02-26T10:44:30.494Z,0.97
2019-02-26T10:47:03.014Z,0.90
2019-02-26T10:49:33.118Z,0.87
2019-02-26T10:52:03.189Z,1.20
2019-02-26T10:54:39.530Z,0.97
2019-02-26T10:57:07.462Z,1.10
2019-02-26T10:59:36.365Z,1.20
2019-02-26T11:02:06.458Z,1.53
2019-02-26T11:04:41.136Z,1.00
2019-02-26T11:07:09.375Z,1.00
2019-02-26T11:09:39.467Z,1.00
2019-02-26T11:12:09.506Z,1.67
2019-02-26T11:14:44.179Z,1.10
2019-02-26T11:17:15.828Z,1.10
2019-02-26T11:19:45.485Z,1.40
2019-02-26T11:22:18.115Z,1.10
2019-02-26T11:24:48.544Z,1.10
2019-02-26T11:27:18.666Z,0.97
2019-02-26T11:29:48.626Z,0.80
2019-02-26T11:32:18.678Z,1.17
2019-02-26T11:34:50.340Z,1.03
2019-02-26T11:37:20.796Z,1.00
2019-02-26T11:39:52.693Z,0.90
2019-02-26T11:42:24.142Z,1.10
2019-02-26T11:44:55.971Z,1.00
2019-02-26T11:47:25.913Z,0.80
2019-02-26T11:49:56.147Z,0.80
2019-02-26T11:52:26.010Z,1.00
2019-02-26T11:54:56.288Z,0.80
2019-02-26T11:57:30.225Z,0.97
2019-02-26T11:59:59.934Z,0.87
2019-02-26T12:02:33.811Z,0.90
2019-02-26T12:05:05.436Z,0.80
2019-02-26T12:07:36.226Z,0.87
2019-02-26T12:10:14.704Z,0.80
2019-02-26T12:12:44.771Z,1.10
2019-02-26T12:15:15.832Z,0.90
2019-02-26T12:17:49.315Z,0.80
2019-02-26T12:20:21.887Z,0.53
2019-02-26T12:22:52.464Z,0.73
2019-02-26T12:25:23.023Z,1.00
2019-02-26T12:27:53.500Z,0.87
2019-02-26T12:30:24.855Z,0.63
2019-02-26T12:32:55.163Z,1.00
2019-02-26T12:35:25.317Z,0.73
2019-02-26T12:37:56.637Z,2.17
2019-02-26T12:40:26.700Z,1.10
2019-02-26T12:42:56.574Z,1.20
2019-02-26T12:45:28.454Z,0.80
2019-02-26T12:47:58.048Z,0.73
2019-02-26T12:50:30.845Z,0.70
2019-02-26T12:53:00.691Z,1.00
2019-02-26T12:55:32.902Z,1.20
2019-02-26T12:58:02.641Z,1.30
2019-02-26T13:00:34.716Z,0.80
2019-02-26T13:03:05.562Z,0.90
2019-02-26T13:05:38.419Z,0.97
2019-02-26T13:08:10.074Z,0.90
2019-02-26T13:10:41.965Z,0.83
2019-02-26T13:13:10.543Z,0.97
2019-02-26T13:15:40.491Z,0.87
2019-02-26T13:18:10.437Z,1.13
2019-02-26T13:20:40.377Z,0.93
2019-02-26T13:23:20.603Z,0.90
2019-02-26T13:25:41.860Z,0.60
2019-02-26T13:28:11.900Z,0.70
2019-02-26T13:30:41.887Z,0.87
2019-02-26T13:33:11.930Z,0.80
2019-02-26T13:35:45.613Z,0.70
2019-02-26T13:38:13.834Z,0.70
2019-02-26T13:40:43.839Z,0.57
2019-02-26T13:43:14.125Z,1.50
2019-02-26T13:45:44.150Z,0.90
2019-02-26T13:48:14.150Z,0.70
2019-02-26T13:50:44.056Z,0.80
2019-02-26T13:53:15.078Z,0.93
2019-02-26T13:55:45.131Z,0.90
2019-02-26T13:58:15.118Z,0.70
2019-02-26T14:00:45.061Z,0.80
2019-02-26T14:03:15.246Z,0.90
2019-02-26T14:05:45.108Z,0.60
2019-02-26T14:08:15.006Z,0.93
2019-02-26T14:10:44.906Z,0.60
2019-02-26T14:13:14.965Z,0.83
2019-02-26T14:15:44.868Z,0.67
2019-02-26T14:18:14.830Z,1.00
2019-02-26T14:20:45.606Z,0.90
2019-02-26T14:23:15.695Z,0.70
2019-02-26T14:25:46.103Z,1.00
2019-02-26T14:28:16.011Z,0.93
2019-02-26T14:30:46.080Z,1.00
2019-02-26T14:33:16.194Z,0.90
2019-02-26T14:35:46.192Z,0.90
2019-02-26T14:38:16.282Z,0.83
2019-02-26T14:40:46.240Z,0.90
2019-02-26T14:43:16.211Z,0.67
2019-02-26T14:45:46.092Z,0.90
2019-02-26T14:48:16.139Z,0.90
2019-02-26T14:50:46.039Z,0.90
2019-02-26T14:53:16.010Z,1.00
2019-02-26T14:55:45.932Z,1.17
2019-02-26T14:58:15.849Z,1.20
2019-02-26T15:00:45.841Z,1.30
2019-02-26T15:03:15.726Z,0.80
2019-02-26T15:05:45.666Z,0.93
2019-02-26T15:08:15.545Z,1.10
2019-02-26T15:10:45.386Z,0.90
2019-02-26T15:13:15.335Z,1.00
2019-02-26T15:15:45.205Z,1.37
2019-02-26T15:18:15.105Z,1.10
2019-02-26T15:20:45.055Z,1.30
2019-02-26T15:23:15.021Z,1.00
2019-02-26T15:25:44.953Z,0.90
2019-02-26T15:28:14.838Z,1.10
2019-02-26T15:30:44.693Z,1.37
2019-02-26T15:33:14.751Z,1.20
2019-02-26T15:35:44.747Z,1.03
2019-02-26T15:38:14.682Z,1.10
2019-02-26T15:40:44.534Z,1.37
2019-02-26T15:43:14.394Z,1.20
2019-02-26T15:45:51.820Z,1.20
2019-02-26T15:48:15.796Z,1.13
2019-02-26T15:50:45.734Z,1.20
2019-02-26T15:53:15.639Z,1.27
2019-02-26T15:55:46.781Z,1.20
2019-02-26T15:58:16.669Z,1.33
2019-02-26T16:00:46.659Z,1.50
2019-02-26T16:03:16.543Z,1.20
2019-02-26T16:05:46.445Z,1.13
2019-02-26T16:08:16.815Z,1.63
2019-02-26T16:10:46.810Z,1.30
2019-02-26T16:13:16.769Z,1.10
2019-02-26T16:15:46.683Z,1.27
2019-02-26T16:18:16.877Z,1.07
2019-02-26T16:20:46.827Z,1.40
2019-02-26T16:23:16.718Z,1.00
2019-02-26T16:25:46.608Z,1.47
2019-02-26T16:28:16.556Z,1.50
2019-02-26T16:30:46.447Z,1.43
2019-02-26T16:33:16.334Z,1.60
2019-02-26T16:35:46.230Z,1.50
2019-02-26T16:38:16.148Z,1.30
2019-02-26T16:40:46.032Z,1.40
2019-02-26T16:43:17.076Z,1.73
2019-02-26T16:45:47.553Z,1.57
2019-02-26T16:48:21.335Z,1.33
2019-02-26T16:50:49.078Z,1.67
2019-02-26T16:53:19.258Z,1.30
2019-02-26T16:55:49.650Z,1.60
2019-02-26T16:58:19.712Z,1.50
2019-02-26T17:00:49.611Z,1.40
2019-02-26T17:03:19.739Z,1.37
2019-02-26T17:05:49.651Z,1.47
2019-02-26T17:08:19.561Z,1.30
2019-02-26T17:10:49.618Z,1.17
2019-02-26T17:13:19.579Z,1.37
2019-02-26T17:15:49.507Z,1.20
2019-02-26T17:18:19.548Z,2.00
2019-02-26T17:20:49.494Z,1.30
2019-02-26T17:23:19.704Z,1.10
2019-02-26T17:25:52.793Z,1.03
2019-02-26T17:28:22.790Z,1.40
2019-02-26T17:30:52.655Z,1.27
2019-02-26T17:33:22.523Z,1.27
2019-02-26T17:35:53.002Z,1.50
2019-02-26T17:38:23.170Z,1.20
2019-02-26T17:40:53.114Z,9.27
2019-02-26T17:43:25.129Z,3.20
2019-02-26T17:45:54.607Z,1.30
2019-02-26T17:48:24.537Z,1.23
2019-02-26T17:50:54.867Z,0.90
2019-02-26T17:53:27.695Z,1.40
2019-02-26T17:55:56.290Z,1.17
2019-02-26T17:58:26.472Z,1.00
2019-02-26T18:00:57.926Z,1.17
2019-02-26T18:03:27.809Z,1.20
2019-02-26T18:05:57.838Z,1.43
2019-02-26T18:08:27.876Z,1.17
2019-02-26T18:10:57.854Z,1.10
2019-02-26T18:13:27.816Z,1.03
2019-02-26T18:15:59.226Z,1.23
2019-02-26T18:18:29.440Z,1.00
2019-02-26T18:20:59.484Z,1.10
2019-02-26T18:23:29.447Z,0.90
2019-02-26T18:25:59.365Z,1.00
2019-02-26T18:28:29.356Z,0.90
2019-02-26T18:30:59.587Z,1.27
2019-02-26T18:33:30.865Z,0.90
2019-02-26T18:36:00.728Z,1.23
2019-02-26T18:38:30.654Z,0.90
2019-02-26T18:41:01.225Z,1.03
2019-02-26T18:43:31.523Z,0.90
2019-02-26T18:46:02.723Z,1.10
2019-02-26T18:48:32.667Z,1.10
2019-02-26T18:51:03.054Z,0.83
2019-02-26T18:53:33.130Z,0.80
2019-02-26T18:56:04.205Z,1.13
2019-02-26T18:58:35.094Z,1.17
2019-02-26T19:01:05.241Z,1.30
2019-02-26T19:03:35.722Z,1.30
2019-02-26T19:06:05.781Z,1.27
2019-02-26T19:08:39.201Z,1.80
2019-02-26T19:11:07.442Z,1.43
2019-02-26T19:13:37.323Z,1.60
2019-02-26T19:16:07.545Z,1.00
2019-02-26T19:18:38.505Z,1.20
2019-02-26T19:21:09.010Z,1.30
2019-02-26T19:23:38.937Z,1.70
2019-02-26T19:26:13.525Z,1.20
2019-02-26T19:28:41.446Z,1.57
2019-02-26T19:31:11.346Z,1.50
2019-02-26T19:33:41.257Z,1.43
2019-02-26T19:36:13.017Z,1.60
2019-02-26T19:38:42.878Z,1.53
2019-02-26T19:41:15.768Z,1.37
2019-02-26T19:43:45.639Z,1.30
2019-02-26T19:46:17.707Z,1.70
2019-02-26T19:48:47.146Z,1.73
2019-02-26T19:51:17.186Z,1.67
2019-02-26T19:53:47.291Z,1.93
2019-02-26T19:56:17.185Z,1.60
2019-02-26T19:58:48.132Z,1.93
2019-02-26T20:01:18.052Z,1.70
2019-02-26T20:03:47.920Z,1.93
2019-02-26T20:06:18.723Z,2.37
2019-02-26T20:08:48.856Z,1.97
2019-02-26T20:11:22.388Z,1.50
2019-02-26T20:13:50.300Z,1.83
2019-02-26T20:16:20.209Z,1.80
2019-02-26T20:18:50.191Z,1.90
2019-02-26T20:21:20.058Z,1.87
2019-02-26T20:23:50.121Z,2.30
2019-02-26T20:26:19.987Z,2.07
2019-02-26T20:28:49.852Z,1.67
2019-02-26T20:31:21.842Z,1.77
2019-02-26T20:33:51.275Z,1.80
2019-02-26T20:36:21.126Z,2.10
2019-02-26T20:38:51.144Z,1.80
2019-02-26T20:41:22.125Z,2.00
2019-02-26T20:43:52.706Z,1.80
2019-02-26T20:46:24.929Z,1.60
2019-02-26T20:48:54.399Z,1.70
2019-02-26T20:51:26.881Z,1.53
2019-02-26T20:53:56.488Z,1.93
2019-02-26T20:56:28.566Z,1.50
2019-02-26T20:58:59.091Z,1.80
2019-02-26T21:01:29.695Z,1.40
2019-02-26T21:04:00.630Z,2.00
2019-02-26T21:06:30.537Z,1.70
2019-02-26T21:09:04.804Z,1.87
2019-02-26T21:11:33.656Z,1.60
2019-02-26T21:14:07.865Z,1.70
2019-02-26T21:16:38.537Z,1.50
2019-02-26T21:19:08.551Z,1.87
2019-02-26T21:21:38.627Z,1.70
2019-02-26T21:24:08.695Z,1.50
2019-02-26T21:26:38.577Z,1.50
2019-02-26T21:29:08.649Z,2.00
2019-02-26T21:31:38.603Z,1.63
2019-02-26T21:34:08.640Z,1.60
2019-02-26T21:36:38.645Z,1.50
2019-02-26T21:39:10.878Z,1.70
2019-02-26T21:41:40.220Z,1.57
2019-02-26T21:44:10.232Z,1.67
2019-02-26T21:46:40.284Z,1.47
2019-02-26T21:49:10.615Z,1.50
2019-02-26T21:51:40.718Z,1.50
2019-02-26T21:54:10.710Z,1.50
2019-02-26T21:56:40.728Z,1.57
2019-02-26T21:59:10.763Z,1.67
2019-02-26T22:01:41.374Z,1.37
2019-02-26T22:04:13.346Z,1.57
2019-02-26T22:06:44.907Z,1.90
2019-02-26T22:09:14.716Z,1.53
2019-02-26T22:11:44.710Z,1.97
2019-02-26T22:14:16.203Z,1.70
2019-02-26T22:16:46.092Z,1.70
2019-02-26T22:19:16.016Z,1.70
2019-02-26T22:21:52.126Z,1.83
2019-02-26T22:24:21.955Z,1.70
2019-02-26T22:26:51.861Z,1.87
2019-02-26T22:29:21.751Z,1.80
2019-02-26T22:31:51.758Z,2.00
2019-02-26T22:34:21.757Z,1.53
2019-02-26T22:36:51.681Z,1.50
2019-02-26T22:39:22.784Z,1.90
2019-02-26T22:41:53.448Z,1.63
2019-02-26T22:44:23.495Z,1.47
2019-02-26T22:46:53.458Z,1.40
2019-02-26T22:49:23.467Z,1.73
2019-02-26T22:51:53.449Z,1.50
2019-02-26T22:54:23.478Z,1.60
2019-02-26T22:56:56.664Z,1.23
2019-02-26T22:59:25.142Z,1.73
2019-02-26T23:01:57.176Z,1.30
2019-02-26T23:04:27.182Z,1.47
2019-02-26T23:06:57.142Z,1.37
2019-02-26T23:09:28.942Z,1.40
2019-02-26T23:11:58.935Z,1.70
2019-02-26T23:14:29.052Z,1.57
2019-02-26T23:16:59.439Z,1.50
2019-02-26T23:19:29.716Z,1.60
2019-02-26T23:21:59.725Z,1.50
2019-02-26T23:24:30.000Z,1.67
2019-02-26T23:27:00.885Z,1.47
2019-02-26T23:29:31.111Z,1.53
2019-02-26T23:32:01.205Z,1.80
2019-02-26T23:34:31.283Z,1.57
2019-02-26T23:37:01.485Z,1.70
2019-02-26T23:39:33.713Z,1.70
2019-02-26T23:42:06.053Z,1.70
2019-02-26T23:44:36.584Z,1.50
2019-02-26T23:47:06.513Z,1.90
2019-02-26T23:49:36.352Z,1.90
2019-02-26T23:52:06.277Z,1.63
2019-02-26T23:54:39.794Z,1.67
2019-02-26T23:57:07.726Z,2.13
2019-02-26T23:59:38.208Z,2.27
